Time;durP1;ratioP1;P1;durP2;ratioP2;P2;SDS_P1;SDS_P2;PMS_P1;PMS_P2;Temp;Humidity;BMP_temperature;BMP_pressure;BME280_temperature;BME280_humidity;BME280_pressure;Samples;Min_cycle;Max_cycle;Signal;HPM_P1;HPM_P2
2022/05/03 00:00:27;;;;;;;3.12;2.45;;;15.30;99.90;;;;;;1925456;73;21088;-82
2022/05/03 00:03:21;;;;;;;4.05;2.62;;;15.20;99.90;;;;;;1917415;75;21173;-82
2022/05/03 00:06:19;;;;;;;4.15;2.50;;;15.10;99.90;;;;;;1917665;75;21141;-82
2022/05/03 00:09:14;;;;;;;2.85;2.62;;;15.10;99.90;;;;;;1917723;75;21075;-83
2022/05/03 00:12:09;;;;;;;3.27;2.45;;;15.10;99.90;;;;;;1932133;73;21124;-82
2022/05/03 00:17:46;;;;;;;3.10;2.40;;;15.00;99.90;;;;;;1951402;72;20109;-82
2022/05/03 00:20:56;;;;;;;3.62;2.50;;;15.00;99.90;;;;;;1917734;75;21625;-82
2022/05/03 00:24:07;;;;;;;2.90;2.30;;;15.00;99.90;;;;;;1917496;75;21055;-83
2022/05/03 00:29:38;;;;;;;2.83;2.50;;;15.00;99.90;;;;;;1942413;72;22300;-82
2022/05/03 00:32:49;;;;;;;2.83;2.62;;;15.10;99.90;;;;;;1910218;74;21096;-83
2022/05/03 00:35:59;;;;;;;3.65;2.40;;;15.10;99.90;;;;;;1921586;74;21050;-83
2022/05/03 00:38:51;;;;;;;2.65;2.45;;;15.10;99.90;;;;;;1923850;74;21051;-83
2022/05/03 00:42:05;;;;;;;2.42;2.20;;;15.10;99.90;;;;;;1923841;74;21113;-83
2022/05/03 00:45:04;;;;;;;3.30;2.47;;;15.00;99.90;;;;;;1921596;74;21055;-83
2022/05/03 00:47:58;;;;;;;3.20;2.80;;;14.90;99.90;;;;;;1908084;74;21157;-84
2022/05/03 00:50:53;;;;;;;3.15;2.55;;;14.90;99.90;;;;;;1917776;74;21584;-84
2022/05/03 00:53:51;;;;;;;3.12;2.67;;;14.80;99.90;;;;;;1923856;74;21087;-83
2022/05/03 00:59:32;;;;;;;3.15;2.30;;;14.80;99.90;;;;;;1955191;72;22123;-82
2022/05/03 01:05:59;;;;;;;4.72;2.10;;;14.80;99.90;;;;;;1958906;72;22162;-82
2022/05/03 01:09:10;;;;;;;2.33;1.90;;;14.80;99.90;;;;;;1917719;75;21629;-82
2022/05/03 01:12:25;;;;;;;5.72;2.55;;;14.80;99.90;;;;;;1917678;75;21043;-83
2022/05/03 01:18:10;;;;;;;2.25;2.05;;;14.70;99.90;;;;;;1958167;72;22095;-82
2022/05/03 01:21:24;;;;;;;4.65;2.15;;;14.80;99.90;;;;;;1888857;75;21526;-82
2022/05/03 01:24:39;;;;;;;3.30;2.42;;;14.70;99.90;;;;;;1906757;75;21063;-82
2022/05/03 01:27:41;;;;;;;3.92;2.30;;;14.60;99.90;;;;;;1892284;75;21183;-83
2022/05/03 01:30:52;;;;;;;8.00;2.72;;;14.60;99.90;;;;;;1908161;75;21487;-82
2022/05/03 01:33:45;;;;;;;2.52;2.33;;;14.60;99.90;;;;;;1897071;75;21121;-82
2022/05/03 01:39:25;;;;;;;4.65;2.65;;;14.70;99.90;;;;;;1947930;72;22090;-82
2022/05/03 01:42:58;;;;;;;6.95;2.50;;;14.70;99.90;;;;;;1907125;75;21142;-82
2022/05/03 01:46:11;;;;;;;3.47;2.67;;;14.70;99.90;;;;;;1898160;75;21107;-83
2022/05/03 01:53:11;;;;;;;3.60;3.00;;;14.70;99.90;;;;;;1897328;75;21102;-83
2022/05/03 01:56:29;;;;;;;3.55;2.72;;;14.70;99.90;;;;;;1884687;76;21110;-83
2022/05/03 01:59:34;;;;;;;9.48;4.20;;;14.60;99.90;;;;;;1901957;75;21103;-82
2022/05/03 02:02:31;;;;;;;9.55;3.12;;;14.60;99.90;;;;;;1899441;75;21091;-82
2022/05/03 02:05:31;;;;;;;7.65;2.75;;;14.50;99.90;;;;;;1895628;75;21062;-82
2022/05/03 02:08:24;;;;;;;5.25;2.87;;;14.50;99.90;;;;;;1895603;75;21133;-82
2022/05/03 02:11:28;;;;;;;6.33;3.22;;;14.50;99.90;;;;;;1910709;75;21144;-82
2022/05/03 02:17:51;;;;;;;5.42;3.42;;;14.40;99.90;;;;;;1906809;75;21570;-83
2022/05/03 02:23:38;;;;;;;9.10;3.05;;;14.30;99.90;;;;;;1955583;72;22170;-82
2022/05/03 02:26:52;;;;;;;4.37;3.00;;;14.30;99.90;;;;;;1900569;75;21109;-82
2022/05/03 02:30:04;;;;;;;5.35;3.27;;;14.20;99.90;;;;;;1917559;75;21094;-82
2022/05/03 02:33:00;;;;;;;6.58;2.92;;;14.20;99.90;;;;;;1885479;75;21063;-82
2022/05/03 02:36:13;;;;;;;7.97;3.65;;;14.10;99.90;;;;;;1906831;75;21652;-83
2022/05/03 02:39:07;;;;;;;6.25;3.30;;;14.10;99.90;;;;;;1912117;75;21095;-83
2022/05/03 02:42:01;;;;;;;7.47;3.10;;;14.00;99.90;;;;;;1889445;74;21121;-83
2022/05/03 02:44:55;;;;;;;4.97;3.22;;;14.00;99.90;;;;;;1884781;76;21114;-83
2022/05/03 02:47:51;;;;;;;5.12;3.00;;;14.00;99.90;;;;;;1898374;75;21116;-83
2022/05/03 02:50:47;;;;;;;7.17;3.20;;;14.00;99.90;;;;;;1895648;75;21167;-83
2022/05/03 02:53:44;;;;;;;7.50;3.17;;;14.00;99.90;;;;;;1895513;75;21191;-83
2022/05/03 02:56:40;;;;;;;6.22;3.35;;;14.00;99.90;;;;;;1895425;75;21121;-83
2022/05/03 03:02:12;;;;;;;4.08;2.75;;;13.90;99.90;;;;;;1942422;72;22168;-82
2022/05/03 03:08:07;;;;;;;5.87;3.30;;;14.00;99.90;;;;;;1957508;72;22214;-82
2022/05/03 03:11:25;;;;;;;3.87;3.10;;;14.00;99.90;;;;;;1915086;75;21039;-84
2022/05/03 03:14:38;;;;;;;4.58;3.17;;;13.90;99.90;;;;;;1889474;75;21119;-83
2022/05/03 03:17:32;;;;;;;3.27;2.83;;;13.90;99.90;;;;;;1904384;75;21102;-83
2022/05/03 03:20:46;;;;;;;3.67;2.92;;;13.80;99.90;;;;;;1898953;75;21575;-83
2022/05/03 03:23:40;;;;;;;3.75;2.80;;;13.80;99.90;;;;;;1899512;75;21105;-83
2022/05/03 03:26:34;;;;;;;5.47;3.27;;;13.80;99.90;;;;;;1916201;75;21043;-84
2022/05/03 03:29:26;;;;;;;5.25;2.98;;;13.80;99.90;;;;;;1912862;75;21050;-88
2022/05/03 03:32:19;;;;;;;3.52;2.80;;;13.80;99.90;;;;;;1895448;75;21129;-85
2022/05/03 03:35:13;;;;;;;3.37;3.02;;;13.70;99.90;;;;;;1902751;75;21098;-85
2022/05/03 03:38:06;;;;;;;4.42;3.50;;;13.60;99.90;;;;;;1903546;75;21080;-85
2022/05/03 03:40:58;;;;;;;4.28;3.40;;;13.50;99.90;;;;;;1893807;75;21064;-85
2022/05/03 03:43:49;;;;;;;9.00;3.58;;;13.50;99.90;;;;;;1887546;75;21063;-85
2022/05/03 03:46:40;;;;;;;3.92;3.62;;;13.60;99.90;;;;;;1910057;75;21067;-84
2022/05/03 03:49:34;;;;;;;5.35;3.33;;;13.60;99.90;;;;;;1899040;75;21563;-85
2022/05/03 03:52:28;;;;;;;7.17;3.87;;;13.60;99.90;;;;;;1907810;75;21071;-85
2022/05/03 03:55:20;;;;;;;5.83;4.15;;;13.50;99.90;;;;;;1906597;75;21056;-85
2022/05/03 03:58:13;;;;;;;4.62;3.90;;;13.50;99.90;;;;;;1906610;75;21185;-84
2022/05/03 04:01:05;;;;;;;5.37;4.10;;;13.40;99.90;;;;;;1886322;75;21187;-84
2022/05/03 04:03:57;;;;;;;5.80;4.00;;;13.40;99.90;;;;;;1895896;75;21156;-85
2022/05/03 04:06:49;;;;;;;8.98;4.47;;;13.40;99.90;;;;;;1913024;75;21071;-85
2022/05/03 04:12:22;;;;;;;8.50;4.30;;;13.40;99.90;;;;;;1955485;72;22175;-84
2022/05/03 04:15:33;;;;;;;7.08;4.47;;;13.40;99.90;;;;;;1898794;75;21123;-85
2022/05/03 04:18:47;;;;;;;9.53;4.47;;;13.40;99.90;;;;;;1898123;75;21494;-85
2022/05/03 04:21:38;;;;;;;6.28;4.53;;;13.50;99.90;;;;;;1913062;75;21055;-81
2022/05/03 04:27:29;;;;;;;9.08;4.37;;;13.40;99.90;;;;;;1953350;72;22139;-86
2022/05/03 04:33:21;;;;;;;5.65;4.25;;;13.40;99.90;;;;;;1941334;72;22075;-86
2022/05/03 04:36:33;;;;;;;7.20;4.97;;;13.40;99.90;;;;;;1890209;75;21064;-87
2022/05/03 04:39:43;;;;;;;6.05;4.15;;;13.40;99.90;;;;;;1896314;75;21530;-87
2022/05/03 04:42:34;;;;;;;6.05;4.45;;;13.40;99.90;;;;;;1906463;75;21109;-87
2022/05/03 04:45:43;;;;;;;10.82;4.08;;;13.40;99.90;;;;;;1905690;74;21168;-86
2022/05/03 04:48:35;;;;;;;9.68;4.67;;;13.40;99.90;;;;;;1883823;76;21117;-87
2022/05/03 04:51:28;;;;;;;7.28;4.50;;;13.40;99.90;;;;;;1900392;75;21047;-87
2022/05/03 04:54:20;;;;;;;11.80;4.58;;;13.40;99.90;;;;;;1902486;75;21151;-87
2022/05/03 04:57:10;;;;;;;9.10;4.67;;;13.50;99.90;;;;;;1870178;76;21113;-87
2022/05/03 05:00:02;;;;;;;8.18;4.45;;;13.50;99.90;;;;;;1906897;75;21173;-87
2022/05/03 05:02:54;;;;;;;6.33;4.65;;;13.50;99.90;;;;;;1869723;76;21082;-86
2022/05/03 05:08:24;;;;;;;8.35;4.70;;;13.60;99.90;;;;;;1945745;72;22597;-87
2022/05/03 05:11:36;;;;;;;6.42;4.35;;;13.60;99.90;;;;;;1906967;75;21086;-86
2022/05/03 05:14:48;;;;;;;7.17;4.15;;;13.60;99.90;;;;;;1906873;75;21107;-87
2022/05/03 05:17:39;;;;;;;7.92;4.60;;;13.50;99.90;;;;;;1882407;75;21101;-87
2022/05/03 05:20:49;;;;;;;8.20;4.58;;;13.60;99.90;;;;;;1916698;75;21091;-87
2022/05/03 05:23:40;;;;;;;6.47;3.92;;;13.60;99.90;;;;;;1897933;75;21055;-87
2022/05/03 05:26:32;;;;;;;10.38;4.45;;;13.50;99.90;;;;;;1898367;75;21125;-85
2022/05/03 05:29:24;;;;;;;7.70;5.00;;;13.60;99.90;;;;;;1907004;75;21177;-84
2022/05/03 05:32:15;;;;;;;5.65;4.40;;;13.60;99.90;;;;;;1905885;75;21157;-84
2022/05/03 05:37:46;;;;;;;6.17;4.30;;;13.70;99.90;;;;;;1942805;72;22181;-84
2022/05/03 05:40:56;;;;;;;11.55;6.90;;;13.70;99.90;;;;;;1927529;73;21034;-84
2022/05/03 05:44:06;;;;;;;7.95;4.78;;;13.70;99.90;;;;;;1921633;73;21108;-85
2022/05/03 05:49:36;;;;;;;11.48;4.90;;;13.70;99.90;;;;;;1976328;72;22263;-85
2022/05/03 05:56:14;;;;;;;11.78;4.53;;;13.90;99.90;;;;;;1883981;75;21152;-84
2022/05/03 05:59:07;;;;;;;5.58;3.75;;;14.00;99.90;;;;;;1918928;73;21577;-84
2022/05/03 06:02:17;;;;;;;9.10;4.03;;;14.00;99.90;;;;;;1916218;75;21103;-84
2022/05/03 06:07:48;;;;;;;5.67;4.53;;;14.20;99.90;;;;;;1935437;72;22181;-83
2022/05/03 06:13:37;;;;;;;5.50;3.67;;;14.10;99.90;;;;;;1955050;72;22103;-83
2022/05/03 06:16:50;;;;;;;5.90;4.33;;;14.20;99.90;;;;;;1911127;75;21142;-85
2022/05/03 06:22:39;;;;;;;6.17;4.10;;;14.30;99.90;;;;;;1950232;72;22314;-85
2022/05/03 06:28:28;;;;;;;6.83;4.45;;;14.30;99.90;;;;;;1955253;72;22102;-85
2022/05/03 06:31:39;;;;;;;6.92;4.62;;;14.40;99.90;;;;;;1909130;75;21168;-84
2022/05/03 06:34:48;;;;;;;8.45;4.03;;;14.50;99.90;;;;;;1898174;75;21168;-84
2022/05/03 06:37:41;;;;;;;8.15;3.60;;;14.50;99.90;;;;;;1913099;75;21091;-84
2022/05/03 06:43:30;;;;;;;6.35;2.95;;;14.70;99.90;;;;;;1958282;72;22673;-83
2022/05/03 06:49:20;;;;;;;7.35;3.50;;;14.90;99.90;;;;;;1944734;72;22136;-83
2022/05/03 06:52:33;;;;;;;5.75;3.47;;;15.00;99.90;;;;;;1915493;75;21124;-83
2022/05/03 06:58:22;;;;;;;4.92;3.80;;;15.00;99.90;;;;;;1949361;72;22591;-85
2022/05/03 07:01:32;;;;;;;6.35;4.15;;;15.10;99.90;;;;;;1909616;75;21059;-85
2022/05/03 07:04:43;;;;;;;5.30;3.55;;;15.30;99.90;;;;;;1915994;75;21152;-85
2022/05/03 07:10:14;;;;;;;6.55;4.90;;;15.30;99.90;;;;;;1946021;72;22205;-83
2022/05/03 07:13:24;;;;;;;4.42;3.25;;;15.40;99.90;;;;;;1918190;74;21116;-84
2022/05/03 07:16:33;;;;;;;3.15;2.85;;;15.50;99.90;;;;;;1916807;74;21114;-84
2022/05/03 07:25:51;;;;;;;4.00;2.58;;;15.70;99.90;;;;;;1943111;72;22228;-83
2022/05/03 07:29:01;;;;;;;7.40;2.95;;;15.80;99.90;;;;;;1884712;76;21101;-83
2022/05/03 07:34:49;;;;;;;3.15;2.45;;;16.10;99.90;;;;;;1962258;72;22174;-83
2022/05/03 07:37:59;;;;;;;3.60;2.83;;;16.10;99.90;;;;;;1917533;75;21055;-83
2022/05/03 07:41:10;;;;;;;3.40;2.87;;;16.20;99.90;;;;;;1932377;73;21047;-84
2022/05/03 07:44:01;;;;;;;6.42;2.87;;;16.30;99.90;;;;;;1927456;73;21114;-83
2022/05/03 07:47:11;;;;;;;4.03;2.47;;;16.30;99.90;;;;;;1944019;73;21083;-83
2022/05/03 07:50:03;;;;;;;5.62;2.60;;;16.40;99.90;;;;;;1946243;73;21498;-84
2022/05/03 07:52:54;;;;;;;3.65;2.60;;;16.50;99.90;;;;;;1934570;73;21059;-84
2022/05/03 07:55:47;;;;;;;4.42;3.02;;;16.60;99.90;;;;;;1936866;73;21059;-84
2022/05/03 07:58:38;;;;;;;4.22;2.50;;;16.70;99.90;;;;;;1917531;75;21140;-83
2022/05/03 08:01:30;;;;;;;3.52;2.40;;;16.70;99.90;;;;;;1939924;73;21117;-83
2022/05/03 08:04:22;;;;;;;3.17;1.98;;;16.80;99.90;;;;;;1917818;75;21547;-83
2022/05/03 08:07:13;;;;;;;4.55;2.27;;;16.80;99.90;;;;;;1935818;73;21162;-83
2022/05/03 08:12:50;;;;;;;2.75;2.20;;;16.90;99.90;;;;;;1958168;72;22214;-83
2022/05/03 08:15:55;;;;;;;2.83;2.17;;;17.10;99.90;;;;;;1884720;76;21071;-84
2022/05/03 08:19:05;;;;;;;2.20;2.00;;;17.20;99.90;;;;;;1904421;75;21168;-83
2022/05/03 08:21:57;;;;;;;4.03;2.10;;;17.30;99.90;;;;;;1910629;75;21282;-83
2022/05/03 08:25:09;;;;;;;2.15;1.90;;;17.30;99.90;;;;;;1897892;75;21165;-83
2022/05/03 08:28:00;;;;;;;3.60;2.30;;;17.30;99.90;;;;;;1906866;75;21110;-83
2022/05/03 08:33:34;;;;;;;3.47;2.25;;;17.70;99.90;;;;;;1954857;72;22733;-82
2022/05/03 08:42:01;;;;;;;4.53;2.80;;;17.70;99.90;;;;;;1902398;75;21133;-84
2022/05/03 08:42:34;;;;;;;4.78;3.00;;;18.00;99.90;;;;;;1950389;72;22150;-84
2022/05/03 08:45:46;;;;;;;3.08;2.62;;;18.10;99.90;;;;;;1917261;75;21538;-83
2022/05/03 08:48:59;;;;;;;3.70;2.45;;;18.20;99.90;;;;;;1939985;73;21063;-84
2022/05/03 08:51:52;;;;;;;3.72;2.40;;;18.40;99.90;;;;;;1920740;73;21605;-83
2022/05/03 08:55:03;;;;;;;3.80;1.92;;;18.40;99.90;;;;;;1920262;73;21055;-83
2022/05/03 08:57:54;;;;;;;2.95;2.42;;;18.50;99.90;;;;;;1917575;75;21216;-83
2022/05/03 09:00:45;;;;;;;6.25;2.52;;;18.60;99.90;;;;;;1917600;75;21117;-83
2022/05/03 09:03:37;;;;;;;3.83;2.20;;;18.60;99.90;;;;;;1940071;73;21146;-84
2022/05/03 09:06:44;;;;;;;3.05;2.58;;;18.40;99.90;;;;;;1920499;73;21067;-84
2022/05/03 09:09:35;;;;;;;6.00;2.70;;;18.40;99.90;;;;;;1917655;75;21076;-84
2022/05/03 09:15:11;;;;;;;4.20;2.58;;;18.50;99.90;;;;;;1966738;72;22150;-82
2022/05/03 09:18:26;;;;;;;4.83;2.40;;;18.60;99.90;;;;;;1951619;73;21015;-83
2022/05/03 09:24:55;;;;;;;4.92;2.87;;;18.70;99.90;;;;;;1951387;73;21095;-84
2022/05/03 09:28:08;;;;;;;3.65;3.22;;;18.70;99.90;;;;;;1974827;72;21094;-82
2022/05/03 09:30:59;;;;;;;4.58;2.50;;;18.70;99.90;;;;;;1975074;72;21058;-82
2022/05/03 09:33:50;;;;;;;6.08;2.87;;;18.80;99.90;;;;;;1951378;73;21161;-84
2022/05/03 09:36:45;;;;;;;4.15;2.83;;;18.80;99.90;;;;;;1970122;72;21055;-83
2022/05/03 09:39:41;;;;;;;3.17;2.45;;;18.80;99.90;;;;;;1951413;73;21623;-83
2022/05/03 09:42:36;;;;;;;5.03;2.80;;;18.80;99.90;;;;;;1951328;73;21122;-84
2022/05/03 09:45:29;;;;;;;6.97;2.70;;;19.00;99.90;;;;;;1951468;73;21160;-84
2022/05/03 09:48:20;;;;;;;3.47;2.70;;;19.00;99.90;;;;;;1951503;73;21108;-84
2022/05/03 09:54:06;;;;;;;6.25;2.35;;;19.30;99.90;;;;;;1941362;72;22158;-82
2022/05/03 09:57:21;;;;;;;3.72;2.35;;;19.40;99.90;;;;;;1916336;75;21052;-84
2022/05/03 10:00:33;;;;;;;2.20;2.00;;;19.40;99.90;;;;;;1895178;75;21110;-83
2022/05/03 10:03:25;;;;;;;5.65;2.50;;;19.20;99.90;;;;;;1895743;75;21153;-82
2022/05/03 10:09:14;;;;;;;5.03;2.50;;;19.50;99.90;;;;;;1954812;72;22193;-84
2022/05/03 10:12:24;;;;;;;5.35;2.83;;;19.50;99.90;;;;;;1917015;75;21094;-83
2022/05/03 10:22:16;;;;;;;4.17;2.67;;;19.60;99.90;;;;;;1903049;75;21463;-82
2022/05/03 10:27:56;;;;;;;4.87;2.22;;;19.80;99.90;;;;;;1948592;72;22160;-83
2022/05/03 10:31:15;;;;;;;5.47;2.33;;;19.80;99.90;;;;;;1906834;75;21087;-83
2022/05/03 10:43:30;;;;;;;2.40;1.90;;;20.20;99.90;;;;;;1936166;72;22220;-82
2022/05/03 10:46:39;;;;;;;4.75;2.12;;;20.30;99.90;;;;;;1904597;75;21159;-84
2022/05/03 10:50:26;;;;;;;2.90;2.00;;;20.40;99.90;;;;;;1884743;75;21115;-83
2022/05/03 10:53:24;;;;;;;2.23;1.60;;;20.50;99.90;;;;;;1907473;75;21117;-83
2022/05/03 10:56:34;;;;;;;2.92;1.90;;;20.70;99.90;;;;;;1917126;75;21100;-83
2022/05/03 10:59:28;;;;;;;2.27;1.82;;;20.60;99.90;;;;;;1902293;75;21144;-83
2022/05/03 11:08:18;;;;;;;2.25;2.00;;;20.90;99.90;;;;;;1944488;72;22137;-82
2022/05/03 11:18:03;;;;;;;2.20;1.80;;;21.10;99.90;;;;;;1948819;72;22586;-82
2022/05/03 11:21:17;;;;;;;3.10;2.30;;;21.10;99.90;;;;;;1894337;75;21204;-84
2022/05/03 11:24:29;;;;;;;4.00;2.15;;;21.10;99.90;;;;;;1913470;75;21101;-83
2022/05/03 11:27:22;;;;;;;2.80;2.05;;;21.10;99.90;;;;;;1906178;75;21063;-82
2022/05/03 11:30:32;;;;;;;3.83;2.35;;;21.10;99.90;;;;;;1905403;75;21040;-83
2022/05/03 11:33:23;;;;;;;3.65;2.20;;;21.20;99.90;;;;;;1884819;76;21204;-84
2022/05/03 11:36:15;;;;;;;2.90;1.80;;;21.30;99.90;;;;;;1905498;75;21622;-84
2022/05/03 11:39:07;;;;;;;3.37;2.00;;;21.40;99.90;;;;;;1910339;75;21058;-84
2022/05/03 11:41:59;;;;;;;2.42;2.00;;;21.40;99.90;;;;;;1885691;75;21196;-83
2022/05/03 11:44:53;;;;;;;2.25;1.98;;;21.40;99.90;;;;;;1899786;75;21142;-82
2022/05/03 11:47:47;;;;;;;3.22;1.95;;;21.50;99.90;;;;;;1897835;75;21091;-83
2022/05/03 11:57:05;;;;;;;3.30;1.50;;;21.60;99.90;;;;;;1900168;75;21086;-83
2022/05/03 11:59:58;;;;;;;4.28;1.72;;;21.70;98.30;;;;;;1895328;75;21147;-83
2022/05/03 12:02:58;;;;;;;2.42;1.70;;;21.80;97.90;;;;;;1898703;75;21060;-83
2022/05/03 12:06:00;;;;;;;2.77;1.70;;;21.90;97.00;;;;;;1878196;76;21084;-82
2022/05/03 12:08:53;;;;;;;2.52;1.62;;;21.90;96.50;;;;;;1897144;75;21088;-82
2022/05/03 12:15:15;;;;;;;6.40;2.15;;;22.20;95.50;;;;;;1906728;75;21172;-82
2022/05/03 12:18:13;;;;;;;3.00;1.70;;;22.20;94.90;;;;;;1913504;74;21166;-83
2022/05/03 12:21:04;;;;;;;;;;;22.10;94.80;;;;;;1899968;74;21079;-82
2022/05/03 12:24:02;;;;;;;3.85;1.75;;;22.30;93.50;;;;;;1907461;74;20143;-82
2022/05/03 12:26:55;;;;;;;2.20;1.75;;;22.10;93.80;;;;;;1909950;74;21102;-82
2022/05/03 12:29:48;;;;;;;2.10;1.50;;;22.20;92.10;;;;;;1926614;74;21054;-83
2022/05/03 12:32:41;;;;;;;3.92;1.60;;;22.30;90.30;;;;;;1899034;74;21059;-82
2022/05/03 12:35:35;;;;;;;2.87;1.55;;;22.60;90.30;;;;;;1917065;74;21079;-82
2022/05/03 12:38:27;;;;;;;2.10;1.62;;;22.50;90.30;;;;;;1908006;74;21095;-82
2022/05/03 12:41:27;;;;;;;4.10;1.98;;;22.50;90.20;;;;;;1907186;74;21337;-82
2022/05/03 12:44:21;;;;;;;3.33;1.70;;;22.40;90.60;;;;;;1904447;74;21129;-82
2022/05/03 12:47:31;;;;;;;2.45;1.70;;;22.60;90.60;;;;;;1894827;74;21498;-82
2022/05/03 12:50:22;;;;;;;2.05;1.47;;;22.60;89.70;;;;;;1915842;74;21127;-82
2022/05/03 12:53:16;;;;;;;1.67;1.57;;;22.60;86.60;;;;;;1914451;74;21113;-82
2022/05/03 12:59:16;;;;;;;3.15;1.50;;;22.90;83.70;;;;;;1907889;74;21168;-82
2022/05/03 13:02:08;;;;;;;1.87;1.35;;;22.90;83.80;;;;;;1904302;74;21084;-82
2022/05/03 13:04:59;;;;;;;1.70;1.45;;;22.90;80.20;;;;;;1900671;74;21093;-82
2022/05/03 13:07:51;;;;;;;3.25;1.80;;;23.00;81.40;;;;;;1877991;76;21124;-82
2022/05/03 13:10:42;;;;;;;3.35;1.37;;;23.20;80.50;;;;;;1917446;74;21062;-82
2022/05/03 13:13:35;;;;;;;2.65;1.85;;;23.10;80.90;;;;;;1892335;76;21195;-82
2022/05/03 13:16:26;;;;;;;3.40;2.08;;;23.20;82.60;;;;;;1868116;76;21106;-82
2022/05/03 13:19:18;;;;;;;3.02;1.70;;;23.30;90.00;;;;;;1911184;74;21152;-82
2022/05/03 13:22:10;;;;;;;3.20;2.10;;;23.50;88.70;;;;;;1900111;75;21098;-82
2022/05/03 13:25:01;;;;;;;4.17;2.25;;;23.30;88.20;;;;;;1911045;74;21121;-82
2022/05/03 13:27:54;;;;;;;6.33;2.10;;;23.40;91.30;;;;;;1910610;74;21120;-82
2022/05/03 13:30:45;;;;;;;3.35;2.20;;;23.70;92.10;;;;;;1910712;74;21132;-82
2022/05/03 13:33:37;;;;;;;2.58;2.30;;;23.70;91.60;;;;;;1933093;74;21047;-82
2022/05/03 13:42:49;;;;;;;3.17;2.40;;;23.70;92.90;;;;;;1912026;74;21616;-82
2022/05/03 13:45:41;;;;;;;3.40;2.50;;;23.40;93.30;;;;;;1910948;74;21079;-82
2022/05/03 13:48:34;;;;;;;4.05;2.52;;;23.40;94.00;;;;;;1910662;74;21066;-82
2022/05/03 13:51:25;;;;;;;4.03;2.85;;;23.40;93.70;;;;;;1914795;74;21605;-82
2022/05/03 13:54:16;;;;;;;5.70;2.70;;;23.30;93.50;;;;;;1912739;74;21046;-82
2022/05/03 13:57:09;;;;;;;4.50;2.47;;;23.30;93.60;;;;;;1910721;74;21054;-82
2022/05/03 14:00:01;;;;;;;4.47;3.05;;;23.10;93.80;;;;;;1910916;74;21558;-81
2022/05/03 14:02:55;;;;;;;6.47;2.47;;;22.90;94.00;;;;;;1913267;74;21078;-82
2022/05/03 14:05:46;;;;;;;3.80;2.60;;;22.80;94.50;;;;;;1914485;74;21051;-82
2022/05/03 14:08:38;;;;;;;4.00;2.70;;;22.90;94.30;;;;;;1910606;74;21066;-83
2022/05/03 14:11:29;;;;;;;3.87;2.35;;;22.90;93.70;;;;;;1910715;74;21141;-83
2022/05/03 14:14:20;;;;;;;2.00;1.80;;;22.90;94.50;;;;;;1911797;74;21058;-82
2022/05/03 14:17:12;;;;;;;2.52;1.80;;;22.90;95.10;;;;;;1915294;74;21164;-81
2022/05/03 14:20:08;;;;;;;2.37;1.80;;;23.20;95.60;;;;;;1899519;74;21615;-81
2022/05/03 14:22:59;;;;;;;2.33;1.62;;;23.60;95.60;;;;;;1894802;75;21088;-82
2022/05/03 14:25:51;;;;;;;7.83;2.22;;;23.80;95.20;;;;;;1882832;75;21526;-82
2022/05/03 14:28:44;;;;;;;2.40;2.20;;;23.90;95.00;;;;;;1904459;75;21212;-82
2022/05/03 14:31:36;;;;;;;2.83;1.80;;;24.00;94.90;;;;;;1896749;75;21110;-82
2022/05/03 14:34:28;;;;;;;2.85;1.70;;;24.10;94.30;;;;;;1882970;75;21121;-82
2022/05/03 14:37:19;;;;;;;4.83;1.90;;;24.10;94.40;;;;;;1882313;75;21060;-81
2022/05/03 14:40:12;;;;;;;7.25;1.70;;;24.10;94.30;;;;;;1896634;75;21059;-83
2022/05/03 14:43:04;;;;;;;2.25;1.62;;;24.20;94.10;;;;;;1899119;75;21239;-82
2022/05/03 14:45:56;;;;;;;3.92;1.80;;;24.20;93.70;;;;;;1882865;75;21106;-81
2022/05/03 14:48:47;;;;;;;4.33;1.60;;;23.60;94.30;;;;;;1894989;75;21052;-82
2022/05/03 14:51:39;;;;;;;3.42;1.72;;;23.20;95.00;;;;;;1904527;75;21123;-82
2022/05/03 14:54:31;;;;;;;1.65;1.35;;;22.90;95.40;;;;;;1888720;75;21051;-82
2022/05/03 15:03:48;;;;;;;2.42;1.70;;;22.20;98.60;;;;;;1894935;75;21055;-82
2022/05/03 15:06:44;;;;;;;1.50;1.40;;;22.50;99.20;;;;;;1911055;75;21074;-82
2022/05/03 15:09:36;;;;;;;2.47;1.50;;;22.30;99.90;;;;;;1905956;75;21135;-82
2022/05/03 15:12:27;;;;;;;3.62;2.27;;;22.10;99.90;;;;;;1872175;77;21483;-82
2022/05/03 15:15:21;;;;;;;2.67;1.45;;;21.80;99.90;;;;;;1884798;75;21510;-82
2022/05/03 15:18:13;;;;;;;4.35;1.70;;;21.70;99.90;;;;;;1882795;75;21125;-82
2022/05/03 15:21:07;;;;;;;3.02;1.30;;;21.60;99.90;;;;;;1894915;75;21098;-82
2022/05/03 15:27:10;;;;;;;2.72;1.72;;;21.10;99.90;;;;;;1904062;75;21635;-82
2022/05/03 15:30:03;;;;;;;2.55;1.62;;;20.90;99.90;;;;;;1916825;75;21094;-82
2022/05/03 15:32:57;;;;;;;2.27;1.70;;;20.80;99.90;;;;;;1894858;75;21058;-82
2022/05/03 15:35:47;;;;;;;3.70;1.60;;;20.60;99.90;;;;;;1894499;75;21059;-82
2022/05/03 15:38:39;;;;;;;2.87;1.45;;;20.60;99.90;;;;;;1895771;75;21063;-82
2022/05/03 15:41:31;;;;;;;3.60;1.50;;;20.60;99.90;;;;;;1899458;75;21071;-82
2022/05/03 15:44:22;;;;;;;4.45;1.50;;;20.60;99.90;;;;;;1906538;75;21102;-82
2022/05/03 15:47:13;;;;;;;3.67;1.90;;;20.50;99.90;;;;;;1888966;75;21088;-82
2022/05/03 15:50:09;;;;;;;3.12;1.70;;;20.40;99.90;;;;;;1916760;75;21128;-82
2022/05/03 15:53:00;;;;;;;4.15;1.60;;;20.30;99.90;;;;;;1901420;75;21051;-82
2022/05/03 15:55:52;;;;;;;2.30;1.57;;;20.10;99.90;;;;;;1896750;75;21082;-82
2022/05/03 15:58:44;;;;;;;1.75;1.65;;;19.90;99.90;;;;;;1894635;75;21134;-82
2022/05/03 16:01:35;;;;;;;3.15;2.20;;;19.60;99.90;;;;;;1914381;75;21052;-82
2022/05/03 16:04:26;;;;;;;2.55;1.80;;;19.50;99.90;;;;;;1903240;75;21574;-82
2022/05/03 16:07:18;;;;;;;2.12;1.77;;;19.30;99.90;;;;;;1897766;75;21056;-82
2022/05/03 16:10:11;;;;;;;2.40;1.80;;;19.30;99.90;;;;;;1894779;75;21052;-82
2022/05/03 16:13:02;;;;;;;1.62;1.50;;;19.10;99.90;;;;;;1894676;75;21062;-82
2022/05/03 16:15:54;;;;;;;3.12;1.87;;;19.10;99.90;;;;;;1896012;75;21059;-82
2022/05/03 16:18:45;;;;;;;2.22;1.67;;;18.90;99.90;;;;;;1900064;75;21147;-82
2022/05/03 16:21:39;;;;;;;1.92;1.67;;;18.80;99.90;;;;;;1894790;75;21187;-82
2022/05/03 16:24:32;;;;;;;2.62;1.62;;;18.80;99.90;;;;;;1889190;75;21171;-82
2022/05/03 16:27:23;;;;;;;2.60;2.10;;;18.60;99.90;;;;;;1884553;75;21066;-82
2022/05/03 16:30:15;;;;;;;2.15;1.70;;;18.60;99.90;;;;;;1899395;75;21246;-83
2022/05/03 16:33:08;;;;;;;4.37;2.60;;;18.50;99.90;;;;;;1896992;75;21059;-83
2022/05/03 16:42:08;;;;;;;3.25;1.75;;;18.30;99.90;;;;;;1887762;75;21093;-82
2022/05/03 16:42:09;;;;;;;7.40;2.98;;;18.10;99.90;;;;;;1886423;75;21212;-83
2022/05/03 16:45:00;;;;;;;6.83;3.50;;;17.90;99.90;;;;;;1896987;75;21169;-83
2022/05/03 16:47:52;;;;;;;3.85;2.60;;;17.60;99.90;;;;;;1898499;75;21088;-84
2022/05/03 16:50:44;;;;;;;4.78;2.90;;;17.50;99.90;;;;;;1894891;75;21125;-84
2022/05/03 16:53:36;;;;;;;9.55;5.22;;;17.40;99.90;;;;;;1894553;75;21128;-82
2022/05/03 16:56:29;;;;;;;6.40;3.42;;;17.40;99.90;;;;;;1896347;75;21626;-82
2022/05/03 16:59:21;;;;;;;3.40;2.10;;;17.30;99.90;;;;;;1884044;76;21051;-84
2022/05/03 17:02:15;;;;;;;4.72;2.22;;;17.20;99.90;;;;;;1906217;75;21141;-82
2022/05/03 17:05:08;;;;;;;7.03;4.53;;;17.10;99.90;;;;;;1889806;75;21047;-82
2022/05/03 17:08:00;;;;;;;4.22;2.80;;;17.10;99.90;;;;;;1894960;75;21191;-82
2022/05/03 17:10:51;;;;;;;5.87;4.08;;;17.00;99.90;;;;;;1898609;75;21066;-82
2022/05/03 17:13:43;;;;;;;5.00;3.40;;;17.10;99.90;;;;;;1897318;75;21109;-82
2022/05/03 17:16:35;;;;;;;7.15;3.77;;;17.20;99.90;;;;;;1894642;75;21106;-82
2022/05/03 17:19:26;;;;;;;3.45;2.00;;;17.30;99.90;;;;;;1894829;75;21051;-82
2022/05/03 17:22:18;;;;;;;2.70;2.10;;;17.40;99.90;;;;;;1892159;75;21152;-83
2022/05/03 17:25:10;;;;;;;4.62;2.45;;;17.40;99.90;;;;;;1886277;75;21114;-83
2022/05/03 17:28:02;;;;;;;3.20;2.33;;;17.30;99.90;;;;;;1873757;75;21048;-83
2022/05/03 17:30:54;;;;;;;3.22;2.02;;;17.40;99.90;;;;;;1893876;75;21125;-83
2022/05/03 17:33:46;;;;;;;2.15;1.60;;;17.30;99.90;;;;;;1872225;77;21096;-83
2022/05/03 17:36:37;;;;;;;1.62;1.30;;;17.30;99.90;;;;;;1899995;75;21096;-83
2022/05/03 17:39:29;;;;;;;2.70;2.22;;;17.10;99.90;;;;;;1894673;75;21054;-82
2022/05/03 17:42:20;;;;;;;3.98;1.60;;;17.00;99.90;;;;;;1877669;75;21522;-83
2022/05/03 17:45:13;;;;;;;3.58;1.75;;;16.80;99.90;;;;;;1894035;75;21056;-83
2022/05/03 17:48:05;;;;;;;2.98;1.80;;;16.90;99.90;;;;;;1900409;75;21188;-82
2022/05/03 17:50:56;;;;;;;3.60;2.25;;;16.70;99.90;;;;;;1884163;75;21119;-83
2022/05/03 17:53:54;;;;;;;3.52;2.20;;;16.60;99.90;;;;;;1878172;75;21109;-83
2022/05/03 17:56:46;;;;;;;2.90;2.22;;;16.60;99.90;;;;;;1882876;75;21526;-83
2022/05/03 17:59:37;;;;;;;3.10;2.33;;;16.60;99.90;;;;;;1897611;75;21125;-82
2022/05/03 18:02:29;;;;;;;2.55;1.90;;;16.50;99.90;;;;;;1872309;77;21123;-83
2022/05/03 18:05:21;;;;;;;2.37;1.98;;;16.50;99.90;;;;;;1906275;75;21055;-84
2022/05/03 18:08:13;;;;;;;4.72;2.35;;;16.30;99.90;;;;;;1894105;75;21056;-83
2022/05/03 18:11:04;;;;;;;3.20;2.08;;;16.40;99.90;;;;;;1884137;76;21542;-83